sensor_id;sensor_type;location;lat;lon;timestamp;P1;durP1;ratioP1;P2;durP2;ratioP2
67090;SDS011;54007;55.818;49.058;2022-10-16T06:52:31;19.42;;;7.12;;
67090;SDS011;54007;55.818;49.058;2022-10-16T06:54:57;19.80;;;6.15;;
67090;SDS011;54007;55.818;49.058;2022-10-16T06:57:23;15.48;;;6.83;;
67090;SDS011;54007;55.818;49.058;2022-10-16T06:59:49;21.57;;;7.67;;
67090;SDS011;54007;55.818;49.058;2022-10-16T07:02:15;15.58;;;6.22;;
67090;SDS011;54007;55.818;49.058;2022-10-16T07:04:40;19.80;;;7.22;;
67090;SDS011;54007;55.818;49.058;2022-10-16T07:07:06;16.93;;;6.43;;
67090;SDS011;54007;55.818;49.058;2022-10-16T07:09:32;19.35;;;7.05;;
67090;SDS011;54007;55.818;49.058;2022-10-16T07:11:58;20.83;;;6.30;;
67090;SDS011;54007;55.818;49.058;2022-10-16T07:14:24;18.73;;;6.58;;
67090;SDS011;54007;55.818;49.058;2022-10-16T07:16:50;16.62;;;6.28;;
67090;SDS011;54007;55.818;49.058;2022-10-16T07:19:15;17.10;;;6.50;;
67090;SDS011;54007;55.818;49.058;2022-10-16T07:21:41;17.60;;;6.12;;
67090;SDS011;54007;55.818;49.058;2022-10-16T07:24:11;16.03;;;6.30;;
67090;SDS011;54007;55.818;49.058;2022-10-16T07:26:34;19.27;;;6.17;;
67090;SDS011;54007;55.818;49.058;2022-10-16T07:29:00;18.90;;;6.20;;
67090;SDS011;54007;55.818;49.058;2022-10-16T07:31:26;16.93;;;6.47;;
67090;SDS011;54007;55.818;49.058;2022-10-16T07:33:52;16.55;;;6.37;;
67090;SDS011;54007;55.818;49.058;2022-10-16T07:36:18;15.10;;;6.28;;
67090;SDS011;54007;55.818;49.058;2022-10-16T07:38:44;17.93;;;6.53;;
67090;SDS011;54007;55.818;49.058;2022-10-16T07:41:10;18.92;;;6.97;;
67090;SDS011;54007;55.818;49.058;2022-10-16T07:43:35;21.27;;;8.10;;
67090;SDS011;54007;55.818;49.058;2022-10-16T07:46:01;17.75;;;6.92;;
67090;SDS011;54007;55.818;49.058;2022-10-16T07:48:27;21.05;;;7.40;;
67090;SDS011;54007;55.818;49.058;2022-10-16T07:50:56;17.03;;;6.73;;
67090;SDS011;54007;55.818;49.058;2022-10-16T07:53:19;18.17;;;7.25;;
67090;SDS011;54007;55.818;49.058;2022-10-16T07:55:44;25.97;;;8.40;;
67090;SDS011;54007;55.818;49.058;2022-10-16T07:58:10;28.00;;;8.35;;
67090;SDS011;54007;55.818;49.058;2022-10-16T08:00:36;27.93;;;10.40;;
67090;SDS011;54007;55.818;49.058;2022-10-16T08:03:02;27.37;;;9.37;;
67090;SDS011;54007;55.818;49.058;2022-10-16T08:05:28;24.25;;;8.58;;
67090;SDS011;54007;55.818;49.058;2022-10-16T08:07:54;22.47;;;8.70;;
67090;SDS011;54007;55.818;49.058;2022-10-16T08:10:20;22.77;;;8.20;;
67090;SDS011;54007;55.818;49.058;2022-10-16T08:12:45;30.75;;;8.05;;
67090;SDS011;54007;55.818;49.058;2022-10-16T08:15:11;19.47;;;7.97;;
67090;SDS011;54007;55.818;49.058;2022-10-16T08:17:37;20.57;;;6.90;;
67090;SDS011;54007;55.818;49.058;2022-10-16T08:20:03;19.80;;;7.25;;
67090;SDS011;54007;55.818;49.058;2022-10-16T08:22:29;19.97;;;10.10;;
67090;SDS011;54007;55.818;49.058;2022-10-16T08:24:55;24.02;;;8.28;;
67090;SDS011;54007;55.818;49.058;2022-10-16T08:27:21;21.83;;;8.80;;
67090;SDS011;54007;55.818;49.058;2022-10-16T08:29:48;22.58;;;9.35;;
67090;SDS011;54007;55.818;49.058;2022-10-16T08:32:12;27.45;;;10.08;;
67090;SDS011;54007;55.818;49.058;2022-10-16T08:34:38;29.15;;;9.85;;
67090;SDS011;54007;55.818;49.058;2022-10-16T08:37:04;25.55;;;9.73;;
67090;SDS011;54007;55.818;49.058;2022-10-16T08:39:30;24.32;;;10.28;;
67090;SDS011;54007;55.818;49.058;2022-10-16T08:44:28;24.67;;;10.05;;
67090;SDS011;54007;55.818;49.058;2022-10-16T08:49:29;26.42;;;10.32;;
67090;SDS011;54007;55.818;49.058;2022-10-16T08:51:55;22.67;;;10.90;;
67090;SDS011;54007;55.818;49.058;2022-10-16T08:54:31;27.73;;;11.65;;
67090;SDS011;54007;55.818;49.058;2022-10-16T08:57:29;28.07;;;11.33;;
67090;SDS011;54007;55.818;49.058;2022-10-16T08:59:27;23.50;;;10.23;;
67090;SDS011;54007;55.818;49.058;2022-10-16T09:01:53;29.42;;;10.68;;
67090;SDS011;54007;55.818;49.058;2022-10-16T09:04:27;22.52;;;9.38;;
67090;SDS011;54007;55.818;49.058;2022-10-16T09:17:19;24.82;;;11.20;;
67090;SDS011;54007;55.818;49.058;2022-10-16T09:19:42;19.67;;;9.78;;
67090;SDS011;54007;55.818;49.058;2022-10-16T09:22:10;18.90;;;7.55;;
67090;SDS011;54007;55.818;49.058;2022-10-16T09:24:35;15.68;;;8.48;;
67090;SDS011;54007;55.818;49.058;2022-10-16T09:27:01;20.70;;;9.30;;
67090;SDS011;54007;55.818;49.058;2022-10-16T09:29:27;20.97;;;8.75;;
67090;SDS011;54007;55.818;49.058;2022-10-16T09:31:53;16.93;;;8.08;;
67090;SDS011;54007;55.818;49.058;2022-10-16T09:34:27;17.95;;;8.05;;
67090;SDS011;54007;55.818;49.058;2022-10-16T09:36:47;16.10;;;7.83;;
67090;SDS011;54007;55.818;49.058;2022-10-16T09:39:13;17.20;;;8.40;;
67090;SDS011;54007;55.818;49.058;2022-10-16T09:41:41;19.48;;;8.80;;
67090;SDS011;54007;55.818;49.058;2022-10-16T09:44:06;23.85;;;9.18;;
67090;SDS011;54007;55.818;49.058;2022-10-16T09:46:31;15.93;;;7.87;;
67090;SDS011;54007;55.818;49.058;2022-10-16T09:48:57;23.53;;;8.60;;
67090;SDS011;54007;55.818;49.058;2022-10-16T09:51:35;17.55;;;7.80;;
67090;SDS011;54007;55.818;49.058;2022-10-16T09:54:01;18.42;;;8.35;;
67090;SDS011;54007;55.818;49.058;2022-10-16T09:56:29;15.97;;;7.97;;
67090;SDS011;54007;55.818;49.058;2022-10-16T09:58:53;25.50;;;10.80;;
67090;SDS011;54007;55.818;49.058;2022-10-16T10:01:17;17.75;;;8.05;;
67090;SDS011;54007;55.818;49.058;2022-10-16T10:03:43;16.02;;;7.37;;
67090;SDS011;54007;55.818;49.058;2022-10-16T10:06:22;16.12;;;7.03;;
67090;SDS011;54007;55.818;49.058;2022-10-16T10:09:34;17.13;;;7.50;;
67090;SDS011;54007;55.818;49.058;2022-10-16T10:11:13;16.82;;;8.15;;
67090;SDS011;54007;55.818;49.058;2022-10-16T10:13:39;15.58;;;7.65;;
67090;SDS011;54007;55.818;49.058;2022-10-16T10:16:05;18.40;;;7.80;;
67090;SDS011;54007;55.818;49.058;2022-10-16T10:18:30;17.32;;;7.80;;
67090;SDS011;54007;55.818;49.058;2022-10-16T10:20:57;20.40;;;7.62;;
67090;SDS011;54007;55.818;49.058;2022-10-16T10:23:23;18.00;;;8.07;;
67090;SDS011;54007;55.818;49.058;2022-10-16T10:28:18;18.48;;;7.90;;
67090;SDS011;54007;55.818;49.058;2022-10-16T10:30:54;21.47;;;9.10;;
67090;SDS011;54007;55.818;49.058;2022-10-16T10:35:57;21.62;;;8.85;;
67090;SDS011;54007;55.818;49.058;2022-10-16T10:38:27;21.05;;;8.28;;
67090;SDS011;54007;55.818;49.058;2022-10-16T10:41:27;21.07;;;9.05;;
67090;SDS011;54007;55.818;49.058;2022-10-16T10:43:26;23.20;;;9.30;;
67090;SDS011;54007;55.818;49.058;2022-10-16T10:45:48;17.85;;;8.33;;
67090;SDS011;54007;55.818;49.058;2022-10-16T10:51:01;21.57;;;8.93;;
67090;SDS011;54007;55.818;49.058;2022-10-16T10:58:41;27.62;;;9.43;;
67090;SDS011;54007;55.818;49.058;2022-10-16T11:06:32;17.07;;;8.90;;
67090;SDS011;54007;55.818;49.058;2022-10-16T11:09:20;21.57;;;9.08;;
67090;SDS011;54007;55.818;49.058;2022-10-16T11:11:25;19.57;;;8.68;;
67090;SDS011;54007;55.818;49.058;2022-10-16T11:13:57;20.17;;;8.90;;
67090;SDS011;54007;55.818;49.058;2022-10-16T11:16:43;24.55;;;8.85;;
67090;SDS011;54007;55.818;49.058;2022-10-16T11:21:51;26.00;;;11.03;;
67090;SDS011;54007;55.818;49.058;2022-10-16T11:24:29;20.67;;;9.70;;
67090;SDS011;54007;55.818;49.058;2022-10-16T11:26:41;22.95;;;9.55;;
67090;SDS011;54007;55.818;49.058;2022-10-16T11:29:10;19.98;;;9.93;;
67090;SDS011;54007;55.818;49.058;2022-10-16T11:34:19;21.42;;;8.83;;
67090;SDS011;54007;55.818;49.058;2022-10-16T11:36:46;20.97;;;9.20;;
67090;SDS011;54007;55.818;49.058;2022-10-16T11:47:01;28.23;;;9.83;;
67090;SDS011;54007;55.818;49.058;2022-10-16T11:49:26;24.10;;;8.85;;
67090;SDS011;54007;55.818;49.058;2022-10-16T11:56:53;20.00;;;8.77;;
67090;SDS011;54007;55.818;49.058;2022-10-16T11:59:35;19.60;;;9.15;;
67090;SDS011;54007;55.818;49.058;2022-10-16T12:04:40;27.05;;;9.40;;
67090;SDS011;54007;55.818;49.058;2022-10-16T12:07:05;21.02;;;9.10;;
67090;SDS011;54007;55.818;49.058;2022-10-16T12:09:30;25.37;;;9.70;;
67090;SDS011;54007;55.818;49.058;2022-10-16T12:11:56;18.32;;;9.13;;
67090;SDS011;54007;55.818;49.058;2022-10-16T12:14:33;20.90;;;8.60;;
67090;SDS011;54007;55.818;49.058;2022-10-16T12:16:58;24.63;;;8.70;;
67090;SDS011;54007;55.818;49.058;2022-10-16T12:19:24;23.32;;;8.08;;
67090;SDS011;54007;55.818;49.058;2022-10-16T12:21:49;20.07;;;8.07;;
67090;SDS011;54007;55.818;49.058;2022-10-16T12:24:22;19.00;;;7.42;;
67090;SDS011;54007;55.818;49.058;2022-10-16T12:26:47;21.50;;;8.25;;
67090;SDS011;54007;55.818;49.058;2022-10-16T12:31:57;21.27;;;8.13;;
67090;SDS011;54007;55.818;49.058;2022-10-16T12:36:49;21.93;;;8.75;;
67090;SDS011;54007;55.818;49.058;2022-10-16T12:39:22;19.75;;;8.65;;
